sensor_id;sensor_type;location;lat;lon;timestamp;pressure;altitude;pressure_sealevel;temperature;humidity
51083;BME280;37131;42.694;23.350;2023-03-03T00:00:45;95548.00;;;4.24;91.74
51083;BME280;37131;42.694;23.350;2023-03-03T00:03:14;95561.00;;;4.15;92.00
51083;BME280;37131;42.694;23.350;2023-03-03T00:05:41;95556.56;;;4.09;91.98
51083;BME280;37131;42.694;23.350;2023-03-03T00:08:07;95554.91;;;3.93;94.03
51083;BME280;37131;42.694;23.350;2023-03-03T00:10:34;95547.63;;;4.12;93.45
51083;BME280;37131;42.694;23.350;2023-03-03T00:12:59;95498.84;;;3.72;93.59
51083;BME280;37131;42.694;23.350;2023-03-03T00:15:25;95537.97;;;4.29;91.70
51083;BME280;37131;42.694;23.350;2023-03-03T00:17:52;95541.44;;;4.36;91.72
51083;BME280;37131;42.694;23.350;2023-03-03T00:20:45;95543.03;;;4.22;91.87
51083;BME280;37131;42.694;23.350;2023-03-03T00:23:19;95551.06;;;4.27;92.93
51083;BME280;37131;42.694;23.350;2023-03-03T00:25:50;95540.91;;;4.26;91.98
51083;BME280;37131;42.694;23.350;2023-03-03T00:30:41;95532.88;;;4.20;93.59
51083;BME280;37131;42.694;23.350;2023-03-03T00:33:30;95535.38;;;4.44;91.83
51083;BME280;37131;42.694;23.350;2023-03-03T00:38:46;95531.47;;;4.33;92.83
51083;BME280;37131;42.694;23.350;2023-03-03T00:41:21;95524.81;;;4.53;92.66
51083;BME280;37131;42.694;23.350;2023-03-03T00:43:48;95524.31;;;4.80;89.75
51083;BME280;37131;42.694;23.350;2023-03-03T00:46:18;95518.38;;;4.34;91.02
51083;BME280;37131;42.694;23.350;2023-03-03T00:48:46;95504.56;;;3.97;93.28
51083;BME280;37131;42.694;23.350;2023-03-03T00:51:27;95512.31;;;4.12;94.58
51083;BME280;37131;42.694;23.350;2023-03-03T00:53:54;95510.19;;;4.16;93.30
51083;BME280;37131;42.694;23.350;2023-03-03T00:56:20;95499.41;;;4.42;91.94
51083;BME280;37131;42.694;23.350;2023-03-03T00:58:45;95503.16;;;4.39;91.57
51083;BME280;37131;42.694;23.350;2023-03-03T01:01:13;95493.44;;;4.56;91.78
51083;BME280;37131;42.694;23.350;2023-03-03T01:03:38;95483.19;;;4.48;91.19
51083;BME280;37131;42.694;23.350;2023-03-03T01:06:04;95484.84;;;4.19;93.54
51083;BME280;37131;42.694;23.350;2023-03-03T01:08:30;95486.59;;;4.19;92.98
51083;BME280;37131;42.694;23.350;2023-03-03T01:11:03;95486.88;;;4.09;94.01
51083;BME280;37131;42.694;23.350;2023-03-03T01:13:31;95469.56;;;3.65;95.84
51083;BME280;37131;42.694;23.350;2023-03-03T01:15:58;95485.09;;;3.57;98.17
51083;BME280;37131;42.694;23.350;2023-03-03T01:18:24;95486.66;;;3.81;97.69
51083;BME280;37131;42.694;23.350;2023-03-03T01:20:50;95484.59;;;3.76;97.91
51083;BME280;37131;42.694;23.350;2023-03-03T01:23:15;95477.34;;;3.95;96.18
51083;BME280;37131;42.694;23.350;2023-03-03T01:25:40;95486.34;;;3.99;96.01
51083;BME280;37131;42.694;23.350;2023-03-03T01:28:06;95486.69;;;3.96;94.70
51083;BME280;37131;42.694;23.350;2023-03-03T01:30:31;95481.97;;;4.29;93.92
51083;BME280;37131;42.694;23.350;2023-03-03T01:32:59;95475.13;;;4.36;93.38
51083;BME280;37131;42.694;23.350;2023-03-03T01:35:25;95481.06;;;4.07;94.42
51083;BME280;37131;42.694;23.350;2023-03-03T01:37:50;95472.44;;;4.00;94.76
51083;BME280;37131;42.694;23.350;2023-03-03T01:40:19;95469.59;;;4.10;94.24
51083;BME280;37131;42.694;23.350;2023-03-03T01:42:47;95477.06;;;3.90;95.02
51083;BME280;37131;42.694;23.350;2023-03-03T01:45:19;95473.75;;;3.81;96.03
51083;BME280;37131;42.694;23.350;2023-03-03T01:48:03;95440.63;;;3.40;97.15
51083;BME280;37131;42.694;23.350;2023-03-03T01:53:18;95473.78;;;3.96;96.42
51083;BME280;37131;42.694;23.350;2023-03-03T01:55:45;95477.41;;;4.01;95.52
51083;BME280;37131;42.694;23.350;2023-03-03T01:58:27;95466.66;;;3.83;96.21
51083;BME280;37131;42.694;23.350;2023-03-03T02:00:59;95463.00;;;3.92;96.27
51083;BME280;37131;42.694;23.350;2023-03-03T02:03:25;95462.34;;;3.60;96.86
51083;BME280;37131;42.694;23.350;2023-03-03T02:05:55;95458.72;;;3.69;96.89
51083;BME280;37131;42.694;23.350;2023-03-03T02:08:25;95464.84;;;3.68;96.93
51083;BME280;37131;42.694;23.350;2023-03-03T02:10:53;95471.97;;;3.66;96.60
51083;BME280;37131;42.694;23.350;2023-03-03T02:13:19;95468.34;;;3.76;95.99
51083;BME280;37131;42.694;23.350;2023-03-03T02:15:45;95468.16;;;3.77;95.52
51083;BME280;37131;42.694;23.350;2023-03-03T02:18:15;95468.28;;;3.46;96.66
51083;BME280;37131;42.694;23.350;2023-03-03T02:23:39;95469.66;;;3.86;96.38
51083;BME280;37131;42.694;23.350;2023-03-03T02:28:34;95455.41;;;3.61;96.57
51083;BME280;37131;42.694;23.350;2023-03-03T02:31:00;95468.34;;;3.76;96.54
51083;BME280;37131;42.694;23.350;2023-03-03T02:33:27;95475.47;;;3.50;96.85
51083;BME280;37131;42.694;23.350;2023-03-03T02:35:54;95469.06;;;3.99;94.30
51083;BME280;37131;42.694;23.350;2023-03-03T02:38:29;95468.00;;;3.94;94.60
51083;BME280;37131;42.694;23.350;2023-03-03T02:44:05;95471.94;;;4.04;94.84
51083;BME280;37131;42.694;23.350;2023-03-03T02:46:34;95464.34;;;4.03;94.13
51083;BME280;37131;42.694;23.350;2023-03-03T02:49:00;95462.03;;;4.08;92.40
51083;BME280;37131;42.694;23.350;2023-03-03T02:51:26;95466.47;;;3.84;93.53
51083;BME280;37131;42.694;23.350;2023-03-03T02:53:52;95462.81;;;3.94;93.47
51083;BME280;37131;42.694;23.350;2023-03-03T02:56:17;95464.44;;;4.10;92.66
51083;BME280;37131;42.694;23.350;2023-03-03T02:58:42;95469.06;;;3.99;92.94
51083;BME280;37131;42.694;23.350;2023-03-03T03:01:08;95464.88;;;3.83;93.07
51083;BME280;37131;42.694;23.350;2023-03-03T03:03:33;95462.38;;;3.75;95.03
51083;BME280;37131;42.694;23.350;2023-03-03T03:05:59;95458.94;;;4.13;93.71
51083;BME280;37131;42.694;23.350;2023-03-03T03:08:24;95459.63;;;3.77;93.85
51083;BME280;37131;42.694;23.350;2023-03-03T03:10:50;95448.06;;;4.02;93.85
51083;BME280;37131;42.694;23.350;2023-03-03T03:13:15;95461.97;;;4.16;91.74
51083;BME280;37131;42.694;23.350;2023-03-03T03:15:40;95459.91;;;4.12;92.51
51083;BME280;37131;42.694;23.350;2023-03-03T03:18:06;95446.38;;;3.95;92.64
51083;BME280;37131;42.694;23.350;2023-03-03T03:20:35;95456.34;;;3.83;93.94
51083;BME280;37131;42.694;23.350;2023-03-03T03:23:02;95455.38;;;4.14;92.88
51083;BME280;37131;42.694;23.350;2023-03-03T03:25:27;95453.75;;;3.98;92.72
51083;BME280;37131;42.694;23.350;2023-03-03T03:27:52;95456.44;;;4.04;93.18
51083;BME280;37131;42.694;23.350;2023-03-03T03:30:18;95448.50;;;3.76;94.16
51083;BME280;37131;42.694;23.350;2023-03-03T03:32:45;95448.97;;;3.80;95.67
51083;BME280;37131;42.694;23.350;2023-03-03T03:35:10;95449.31;;;4.07;93.79
51083;BME280;37131;42.694;23.350;2023-03-03T03:37:36;95447.81;;;4.27;92.45
51083;BME280;37131;42.694;23.350;2023-03-03T03:40:01;95441.47;;;4.15;93.22
51083;BME280;37131;42.694;23.350;2023-03-03T03:42:27;95438.88;;;4.15;93.04
51083;BME280;37131;42.694;23.350;2023-03-03T03:44:52;95439.78;;;4.07;93.20
51083;BME280;37131;42.694;23.350;2023-03-03T03:47:18;95436.06;;;3.95;94.64
51083;BME280;37131;42.694;23.350;2023-03-03T03:49:43;95432.84;;;3.78;95.80
51083;BME280;37131;42.694;23.350;2023-03-03T03:52:08;95431.97;;;4.15;94.80
51083;BME280;37131;42.694;23.350;2023-03-03T03:54:34;95427.97;;;3.83;96.72
51083;BME280;37131;42.694;23.350;2023-03-03T03:56:59;95426.72;;;3.94;96.49
51083;BME280;37131;42.694;23.350;2023-03-03T03:59:25;95430.81;;;3.88;96.91
51083;BME280;37131;42.694;23.350;2023-03-03T04:01:50;95433.38;;;3.73;98.78
51083;BME280;37131;42.694;23.350;2023-03-03T04:04:16;95429.97;;;3.58;100.00
51083;BME280;37131;42.694;23.350;2023-03-03T04:06:41;95426.94;;;3.54;100.00
51083;BME280;37131;42.694;23.350;2023-03-03T04:09:07;95418.25;;;3.55;100.00
51083;BME280;37131;42.694;23.350;2023-03-03T04:11:32;95430.16;;;3.56;100.00
51083;BME280;37131;42.694;23.350;2023-03-03T04:13:57;95431.25;;;3.77;100.00
51083;BME280;37131;42.694;23.350;2023-03-03T04:16:23;95428.38;;;3.72;100.00
51083;BME280;37131;42.694;23.350;2023-03-03T04:18:49;95422.88;;;3.75;100.00
51083;BME280;37131;42.694;23.350;2023-03-03T04:21:14;95431.25;;;3.62;100.00
51083;BME280;37131;42.694;23.350;2023-03-03T04:23:40;95419.72;;;3.49;100.00
51083;BME280;37131;42.694;23.350;2023-03-03T04:26:06;95429.06;;;3.50;100.00
51083;BME280;37131;42.694;23.350;2023-03-03T04:28:32;95423.19;;;3.42;100.00
51083;BME280;37131;42.694;23.350;2023-03-03T04:30:57;95423.63;;;3.45;100.00
51083;BME280;37131;42.694;23.350;2023-03-03T04:33:23;95421.44;;;3.57;100.00
51083;BME280;37131;42.694;23.350;2023-03-03T04:35:48;95416.94;;;3.74;100.00
51083;BME280;37131;42.694;23.350;2023-03-03T04:38:14;95420.75;;;3.93;100.00
51083;BME280;37131;42.694;23.350;2023-03-03T04:40:42;95425.44;;;3.75;100.00
51083;BME280;37131;42.694;23.350;2023-03-03T04:43:09;95428.00;;;3.45;100.00
51083;BME280;37131;42.694;23.350;2023-03-03T04:45:34;95403.72;;;3.54;100.00
51083;BME280;37131;42.694;23.350;2023-03-03T04:48:00;95419.50;;;3.59;100.00
51083;BME280;37131;42.694;23.350;2023-03-03T04:50:26;95422.22;;;3.43;100.00
51083;BME280;37131;42.694;23.350;2023-03-03T04:52:51;95427.78;;;3.31;100.00
51083;BME280;37131;42.694;23.350;2023-03-03T04:55:17;95427.66;;;3.25;100.00
51083;BME280;37131;42.694;23.350;2023-03-03T04:57:42;95418.34;;;3.62;100.00
51083;BME280;37131;42.694;23.350;2023-03-03T05:00:10;95427.66;;;3.63;100.00
51083;BME280;37131;42.694;23.350;2023-03-03T05:02:38;95430.69;;;3.51;100.00
51083;BME280;37131;42.694;23.350;2023-03-03T05:05:04;95431.59;;;3.74;100.00
51083;BME280;37131;42.694;23.350;2023-03-03T05:07:30;95427.84;;;3.61;100.00
51083;BME280;37131;42.694;23.350;2023-03-03T05:09:55;95433.47;;;3.80;100.00
51083;BME280;37131;42.694;23.350;2023-03-03T05:12:21;95436.66;;;3.67;100.00
51083;BME280;37131;42.694;23.350;2023-03-03T05:14:46;95438.03;;;3.93;100.00
51083;BME280;37131;42.694;23.350;2023-03-03T05:17:11;95427.34;;;4.11;100.00
51083;BME280;37131;42.694;23.350;2023-03-03T05:19:37;95429.03;;;4.03;100.00
51083;BME280;37131;42.694;23.350;2023-03-03T05:22:02;95431.31;;;3.54;100.00
51083;BME280;37131;42.694;23.350;2023-03-03T05:24:28;95438.53;;;3.88;100.00
51083;BME280;37131;42.694;23.350;2023-03-03T05:26:53;95435.41;;;3.78;100.00
51083;BME280;37131;42.694;23.350;2023-03-03T05:29:19;95435.94;;;3.73;100.00
51083;BME280;37131;42.694;23.350;2023-03-03T05:31:44;95445.13;;;3.38;100.00
51083;BME280;37131;42.694;23.350;2023-03-03T05:34:10;95439.06;;;3.30;100.00
51083;BME280;37131;42.694;23.350;2023-03-03T05:36:35;95391.19;;;3.36;100.00
51083;BME280;37131;42.694;23.350;2023-03-03T05:39:01;95444.13;;;3.62;100.00
51083;BME280;37131;42.694;23.350;2023-03-03T05:41:26;95434.91;;;3.82;100.00
51083;BME280;37131;42.694;23.350;2023-03-03T05:43:51;95437.38;;;3.91;100.00
51083;BME280;37131;42.694;23.350;2023-03-03T05:46:17;95445.06;;;3.84;100.00
51083;BME280;37131;42.694;23.350;2023-03-03T05:48:42;95445.38;;;3.81;100.00
51083;BME280;37131;42.694;23.350;2023-03-03T05:51:08;95431.63;;;4.03;100.00
51083;BME280;37131;42.694;23.350;2023-03-03T05:53:33;95452.34;;;4.40;100.00
51083;BME280;37131;42.694;23.350;2023-03-03T05:55:59;95447.34;;;4.09;100.00
51083;BME280;37131;42.694;23.350;2023-03-03T05:58:24;95449.50;;;3.90;100.00
51083;BME280;37131;42.694;23.350;2023-03-03T06:00:50;95445.22;;;3.97;100.00
51083;BME280;37131;42.694;23.350;2023-03-03T06:03:15;95443.97;;;4.23;100.00
51083;BME280;37131;42.694;23.350;2023-03-03T06:05:42;95439.97;;;4.20;100.00
51083;BME280;37131;42.694;23.350;2023-03-03T06:08:07;95446.91;;;4.35;100.00
51083;BME280;37131;42.694;23.350;2023-03-03T06:10:32;95445.53;;;4.54;100.00
51083;BME280;37131;42.694;23.350;2023-03-03T06:12:58;95452.59;;;4.45;100.00
51083;BME280;37131;42.694;23.350;2023-03-03T06:15:23;95443.19;;;4.22;100.00
51083;BME280;37131;42.694;23.350;2023-03-03T06:17:49;95445.31;;;4.04;100.00
51083;BME280;37131;42.694;23.350;2023-03-03T06:20:15;95456.53;;;4.26;100.00
51083;BME280;37131;42.694;23.350;2023-03-03T06:22:40;95448.69;;;4.34;100.00
51083;BME280;37131;42.694;23.350;2023-03-03T06:25:06;95456.34;;;4.28;100.00
51083;BME280;37131;42.694;23.350;2023-03-03T06:27:31;95458.00;;;4.35;100.00
51083;BME280;37131;42.694;23.350;2023-03-03T06:29:57;95458.53;;;4.46;100.00
51083;BME280;37131;42.694;23.350;2023-03-03T06:32:22;95447.34;;;4.09;100.00
51083;BME280;37131;42.694;23.350;2023-03-03T06:34:48;95456.63;;;4.18;100.00
51083;BME280;37131;42.694;23.350;2023-03-03T06:37:13;95450.09;;;4.22;100.00
51083;BME280;37131;42.694;23.350;2023-03-03T06:39:38;95450.97;;;4.44;100.00
51083;BME280;37131;42.694;23.350;2023-03-03T06:42:04;95461.03;;;4.54;100.00
51083;BME280;37131;42.694;23.350;2023-03-03T06:44:29;95458.81;;;4.51;100.00
51083;BME280;37131;42.694;23.350;2023-03-03T06:46:54;95461.81;;;4.54;99.95
51083;BME280;37131;42.694;23.350;2023-03-03T06:49:22;95461.75;;;4.48;99.79
51083;BME280;37131;42.694;23.350;2023-03-03T06:51:47;95460.78;;;4.34;100.00
51083;BME280;37131;42.694;23.350;2023-03-03T06:54:15;95463.72;;;4.61;100.00
51083;BME280;37131;42.694;23.350;2023-03-03T06:56:42;95471.44;;;4.76;100.00
51083;BME280;37131;42.694;23.350;2023-03-03T06:59:12;95461.03;;;4.90;98.78
51083;BME280;37131;42.694;23.350;2023-03-03T07:01:38;95465.03;;;4.56;99.89
51083;BME280;37131;42.694;23.350;2023-03-03T07:04:15;95467.34;;;4.51;99.57
51083;BME280;37131;42.694;23.350;2023-03-03T07:06:41;95459.97;;;4.48;100.00
51083;BME280;37131;42.694;23.350;2023-03-03T07:09:24;95468.00;;;4.38;100.00
51083;BME280;37131;42.694;23.350;2023-03-03T07:11:51;95465.75;;;4.35;100.00
51083;BME280;37131;42.694;23.350;2023-03-03T07:14:18;95465.75;;;4.65;100.00
51083;BME280;37131;42.694;23.350;2023-03-03T07:16:45;95468.63;;;4.92;100.00
51083;BME280;37131;42.694;23.350;2023-03-03T07:19:20;95465.81;;;5.30;96.93
51083;BME280;37131;42.694;23.350;2023-03-03T07:21:49;95463.50;;;4.99;97.31
51083;BME280;37131;42.694;23.350;2023-03-03T07:24:28;95462.47;;;5.36;96.04
51083;BME280;37131;42.694;23.350;2023-03-03T07:29:47;95446.03;;;5.01;98.17
51083;BME280;37131;42.694;23.350;2023-03-03T07:32:28;95461.09;;;4.76;97.46
51083;BME280;37131;42.694;23.350;2023-03-03T07:35:01;95459.56;;;5.03;99.10
51083;BME280;37131;42.694;23.350;2023-03-03T07:37:36;95383.66;;;4.61;98.56
51083;BME280;37131;42.694;23.350;2023-03-03T07:40:38;95456.94;;;4.81;95.82
51083;BME280;37131;42.694;23.350;2023-03-03T07:43:30;95462.13;;;4.81;98.13
51083;BME280;37131;42.694;23.350;2023-03-03T07:48:41;95457.13;;;4.80;98.50
51083;BME280;37131;42.694;23.350;2023-03-03T07:51:38;95452.25;;;4.85;99.06
51083;BME280;37131;42.694;23.350;2023-03-03T07:54:34;95460.44;;;4.73;100.00
51083;BME280;37131;42.694;23.350;2023-03-03T07:59:46;95447.44;;;5.03;100.00
51083;BME280;37131;42.694;23.350;2023-03-03T08:04:53;95450.94;;;4.74;99.75
51083;BME280;37131;42.694;23.350;2023-03-03T08:07:21;95454.78;;;4.63;100.00
51083;BME280;37131;42.694;23.350;2023-03-03T08:09:51;95446.34;;;4.54;100.00
51083;BME280;37131;42.694;23.350;2023-03-03T08:12:37;95446.09;;;5.07;99.44
51083;BME280;37131;42.694;23.350;2023-03-03T08:15:22;95447.72;;;5.30;97.95
51083;BME280;37131;42.694;23.350;2023-03-03T08:17:49;95443.97;;;5.11;97.73
51083;BME280;37131;42.694;23.350;2023-03-03T08:22:58;95442.13;;;5.05;97.10
51083;BME280;37131;42.694;23.350;2023-03-03T08:25:24;95441.59;;;5.38;96.23
51083;BME280;37131;42.694;23.350;2023-03-03T08:27:49;95440.47;;;5.47;95.92
51083;BME280;37131;42.694;23.350;2023-03-03T08:30:15;95432.31;;;5.22;94.33
51083;BME280;37131;42.694;23.350;2023-03-03T08:32:40;95436.28;;;5.46;94.39
51083;BME280;37131;42.694;23.350;2023-03-03T08:35:06;95435.19;;;5.34;93.63
51083;BME280;37131;42.694;23.350;2023-03-03T08:37:31;95426.47;;;5.63;92.28
51083;BME280;37131;42.694;23.350;2023-03-03T08:39:57;95438.63;;;5.41;93.19
51083;BME280;37131;42.694;23.350;2023-03-03T08:42:22;95436.94;;;5.05;94.29
51083;BME280;37131;42.694;23.350;2023-03-03T08:44:48;95435.19;;;5.12;95.45
51083;BME280;37131;42.694;23.350;2023-03-03T08:47:13;95431.56;;;5.50;94.68
51083;BME280;37131;42.694;23.350;2023-03-03T08:49:38;95438.81;;;5.61;93.25
51083;BME280;37131;42.694;23.350;2023-03-03T08:52:04;95444.09;;;5.53;93.54
51083;BME280;37131;42.694;23.350;2023-03-03T08:54:29;95431.84;;;5.61;92.66
51083;BME280;37131;42.694;23.350;2023-03-03T08:56:55;95427.97;;;5.79;91.07
51083;BME280;37131;42.694;23.350;2023-03-03T08:59:20;95433.34;;;5.77;94.33
51083;BME280;37131;42.694;23.350;2023-03-03T09:01:46;95430.75;;;5.77;93.21
51083;BME280;37131;42.694;23.350;2023-03-03T09:04:11;95432.53;;;6.05;91.80
51083;BME280;37131;42.694;23.350;2023-03-03T09:06:37;95433.06;;;5.66;92.19
51083;BME280;37131;42.694;23.350;2023-03-03T09:09:03;95427.63;;;5.89;92.07
51083;BME280;37131;42.694;23.350;2023-03-03T09:11:29;95422.41;;;6.10;91.73
51083;BME280;37131;42.694;23.350;2023-03-03T09:14:05;95425.81;;;5.83;93.70
51083;BME280;37131;42.694;23.350;2023-03-03T09:16:36;95428.81;;;5.58;95.46
51083;BME280;37131;42.694;23.350;2023-03-03T09:19:15;95437.22;;;5.38;96.43
51083;BME280;37131;42.694;23.350;2023-03-03T09:21:43;95428.63;;;5.59;94.76
51083;BME280;37131;42.694;23.350;2023-03-03T09:24:19;95428.31;;;5.69;93.97
51083;BME280;37131;42.694;23.350;2023-03-03T09:26:48;95419.75;;;5.97;94.13
51083;BME280;37131;42.694;23.350;2023-03-03T09:31:45;95426.88;;;5.67;95.18
51083;BME280;37131;42.694;23.350;2023-03-03T09:34:19;95422.63;;;5.80;93.05
51083;BME280;37131;42.694;23.350;2023-03-03T09:36:46;95426.03;;;5.88;93.53
51083;BME280;37131;42.694;23.350;2023-03-03T09:39:32;95428.16;;;6.06;91.52
51083;BME280;37131;42.694;23.350;2023-03-03T09:42:27;95430.09;;;5.97;91.90
51083;BME280;37131;42.694;23.350;2023-03-03T09:47:42;95424.09;;;6.31;89.33
51083;BME280;37131;42.694;23.350;2023-03-03T09:58:26;95426.56;;;6.05;90.52
51083;BME280;37131;42.694;23.350;2023-03-03T10:06:58;95421.38;;;5.76;90.88
51083;BME280;37131;42.694;23.350;2023-03-03T10:12:30;95418.78;;;6.05;88.60
51083;BME280;37131;42.694;23.350;2023-03-03T10:18:28;95410.91;;;5.85;90.42
51083;BME280;37131;42.694;23.350;2023-03-03T10:47:36;95392.31;;;5.46;93.31
51083;BME280;37131;42.694;23.350;2023-03-03T10:50:09;95394.84;;;5.61;92.84
51083;BME280;37131;42.694;23.350;2023-03-03T10:52:42;95381.25;;;5.87;92.83
51083;BME280;37131;42.694;23.350;2023-03-03T10:55:33;95384.88;;;6.35;90.25
51083;BME280;37131;42.694;23.350;2023-03-03T11:20:40;95369.09;;;6.91;83.17
51083;BME280;37131;42.694;23.350;2023-03-03T11:31:46;95358.31;;;7.01;82.44
51083;BME280;37131;42.694;23.350;2023-03-03T11:39:27;95360.09;;;6.87;83.05
51083;BME280;37131;42.694;23.350;2023-03-03T11:44:32;95350.44;;;6.47;85.09
51083;BME280;37131;42.694;23.350;2023-03-03T11:47:03;95354.25;;;6.52;86.04
51083;BME280;37131;42.694;23.350;2023-03-03T11:57:38;95340.16;;;6.67;84.16
51083;BME280;37131;42.694;23.350;2023-03-03T12:03:06;95346.47;;;6.52;87.05
51083;BME280;37131;42.694;23.350;2023-03-03T12:11:20;95341.94;;;6.87;85.08
51083;BME280;37131;42.694;23.350;2023-03-03T12:19:30;95345.16;;;7.16;84.88
51083;BME280;37131;42.694;23.350;2023-03-03T12:28:37;95337.97;;;7.18;85.83
51083;BME280;37131;42.694;23.350;2023-03-03T12:30:48;95341.16;;;7.40;85.02
51083;BME280;37131;42.694;23.350;2023-03-03T12:33:34;95341.94;;;7.54;85.90
51083;BME280;37131;42.694;23.350;2023-03-03T12:52:25;95345.97;;;7.03;87.57
51083;BME280;37131;42.694;23.350;2023-03-03T12:55:09;95346.94;;;7.15;88.25
51083;BME280;37131;42.694;23.350;2023-03-03T13:14:10;95351.09;;;6.01;95.24
51083;BME280;37131;42.694;23.350;2023-03-03T13:16:54;95346.31;;;5.98;95.02
51083;BME280;37131;42.694;23.350;2023-03-03T13:19:32;95343.88;;;6.58;94.16
51083;BME280;37131;42.694;23.350;2023-03-03T13:25:03;95339.50;;;6.45;94.98
51083;BME280;37131;42.694;23.350;2023-03-03T13:27:38;95334.34;;;5.97;98.75
51083;BME280;37131;42.694;23.350;2023-03-03T13:30:25;95337.63;;;6.19;98.18
51083;BME280;37131;42.694;23.350;2023-03-03T13:33:03;95342.06;;;6.32;97.82
51083;BME280;37131;42.694;23.350;2023-03-03T13:35:45;95332.41;;;6.12;98.71
51083;BME280;37131;42.694;23.350;2023-03-03T13:38:18;95339.13;;;6.62;98.62
51083;BME280;37131;42.694;23.350;2023-03-03T13:40:56;95333.75;;;6.70;96.39
51083;BME280;37131;42.694;23.350;2023-03-03T13:43:30;95338.38;;;6.88;95.56
51083;BME280;37131;42.694;23.350;2023-03-03T13:54:51;95332.44;;;6.26;96.63
51083;BME280;37131;42.694;23.350;2023-03-03T14:06:16;95333.91;;;6.48;92.85
51083;BME280;37131;42.694;23.350;2023-03-03T14:11:29;95334.28;;;6.32;95.61
51083;BME280;37131;42.694;23.350;2023-03-03T14:19:31;95337.00;;;6.10;99.32
51083;BME280;37131;42.694;23.350;2023-03-03T14:22:17;95326.22;;;6.07;99.08
51083;BME280;37131;42.694;23.350;2023-03-03T14:25:05;95322.00;;;5.99;97.91
51083;BME280;37131;42.694;23.350;2023-03-03T14:27:38;95326.19;;;6.00;99.42
51083;BME280;37131;42.694;23.350;2023-03-03T14:30:41;95321.06;;;6.07;98.06
51083;BME280;37131;42.694;23.350;2023-03-03T14:36:04;95323.41;;;6.02;99.03
51083;BME280;37131;42.694;23.350;2023-03-03T14:41:16;95315.50;;;6.17;100.00
51083;BME280;37131;42.694;23.350;2023-03-03T14:43:59;95302.03;;;6.48;100.00
51083;BME280;37131;42.694;23.350;2023-03-03T14:46:36;95316.81;;;6.61;99.37
51083;BME280;37131;42.694;23.350;2023-03-03T14:49:15;95317.59;;;6.61;97.27
51083;BME280;37131;42.694;23.350;2023-03-03T14:51:52;95320.16;;;6.41;94.29
51083;BME280;37131;42.694;23.350;2023-03-03T14:54:26;95322.19;;;6.66;93.03
51083;BME280;37131;42.694;23.350;2023-03-03T14:59:27;95311.19;;;6.50;95.87
51083;BME280;37131;42.694;23.350;2023-03-03T15:02:29;95313.97;;;6.29;96.83
51083;BME280;37131;42.694;23.350;2023-03-03T15:07:36;95308.56;;;6.24;100.00
51083;BME280;37131;42.694;23.350;2023-03-03T15:10:05;95314.38;;;6.39;99.24
51083;BME280;37131;42.694;23.350;2023-03-03T15:17:53;95314.13;;;6.27;96.54
51083;BME280;37131;42.694;23.350;2023-03-03T15:20:36;95321.06;;;6.07;98.42
51083;BME280;37131;42.694;23.350;2023-03-03T15:28:21;95304.63;;;6.48;98.82
51083;BME280;37131;42.694;23.350;2023-03-03T15:39:27;95325.41;;;6.06;97.80
51083;BME280;37131;42.694;23.350;2023-03-03T15:47:43;95322.91;;;6.33;99.37
51083;BME280;37131;42.694;23.350;2023-03-03T15:56:23;95328.25;;;6.18;99.34
51083;BME280;37131;42.694;23.350;2023-03-03T16:01:28;95317.94;;;6.31;96.21
51083;BME280;37131;42.694;23.350;2023-03-03T16:04:17;95333.88;;;6.35;94.86
51083;BME280;37131;42.694;23.350;2023-03-03T16:20:47;95348.81;;;6.33;95.13
51083;BME280;37131;42.694;23.350;2023-03-03T16:23:22;95361.50;;;6.14;97.57
51083;BME280;37131;42.694;23.350;2023-03-03T16:26:05;95355.91;;;6.11;97.75
51083;BME280;37131;42.694;23.350;2023-03-03T16:28:59;95352.56;;;6.24;97.04
51083;BME280;37131;42.694;23.350;2023-03-03T16:31:37;95356.88;;;6.03;98.08
51083;BME280;37131;42.694;23.350;2023-03-03T16:34:20;95343.94;;;6.03;100.00
51083;BME280;37131;42.694;23.350;2023-03-03T16:37:29;95350.53;;;6.12;99.03
51083;BME280;37131;42.694;23.350;2023-03-03T16:40:07;95357.06;;;6.02;99.98
51083;BME280;37131;42.694;23.350;2023-03-03T16:42:34;95365.84;;;6.07;99.36
51083;BME280;37131;42.694;23.350;2023-03-03T16:45:33;95363.91;;;6.16;97.72
51083;BME280;37131;42.694;23.350;2023-03-03T16:50:47;95369.31;;;6.28;96.06
51083;BME280;37131;42.694;23.350;2023-03-03T16:56:08;95378.59;;;6.64;93.16
51083;BME280;37131;42.694;23.350;2023-03-03T17:01:42;95388.72;;;6.45;94.57
51083;BME280;37131;42.694;23.350;2023-03-03T17:07:43;95390.13;;;6.61;93.37
51083;BME280;37131;42.694;23.350;2023-03-03T17:10:24;95390.16;;;6.68;93.56
51083;BME280;37131;42.694;23.350;2023-03-03T17:16:11;95389.53;;;6.53;93.57
51083;BME280;37131;42.694;23.350;2023-03-03T17:26:45;95392.34;;;6.71;93.92
51083;BME280;37131;42.694;23.350;2023-03-03T17:29:33;95397.56;;;6.84;91.67
51083;BME280;37131;42.694;23.350;2023-03-03T17:40:02;95405.81;;;6.40;96.50
51083;BME280;37131;42.694;23.350;2023-03-03T17:45:09;95419.44;;;6.68;95.46
51083;BME280;37131;42.694;23.350;2023-03-03T17:47:57;95419.06;;;6.65;95.24
51083;BME280;37131;42.694;23.350;2023-03-03T17:55:38;95430.63;;;6.69;95.81
51083;BME280;37131;42.694;23.350;2023-03-03T18:22:41;95449.47;;;7.11;90.51
51083;BME280;37131;42.694;23.350;2023-03-03T18:28:15;95451.03;;;6.99;91.33
51083;BME280;37131;42.694;23.350;2023-03-03T18:30:57;95444.09;;;7.26;90.11
51083;BME280;37131;42.694;23.350;2023-03-03T18:33:35;95450.88;;;7.27;89.56
51083;BME280;37131;42.694;23.350;2023-03-03T18:36:14;95454.03;;;6.96;90.83
51083;BME280;37131;42.694;23.350;2023-03-03T18:39:05;95463.69;;;6.67;92.48
51083;BME280;37131;42.694;23.350;2023-03-03T18:42:03;95459.59;;;6.99;91.32
51083;BME280;37131;42.694;23.350;2023-03-03T18:44:30;95460.72;;;6.70;91.60
51083;BME280;37131;42.694;23.350;2023-03-03T18:46:56;95466.56;;;6.85;92.17
51083;BME280;37131;42.694;23.350;2023-03-03T18:52:26;95477.91;;;6.84;91.78
51083;BME280;37131;42.694;23.350;2023-03-03T18:57:29;95477.03;;;6.64;94.04